Latest Weather Observations for Beerburrum

IDQ60901

Issued at 8:21 pm EST Friday 13 December 2019 (issued every 10 minutes, with the page automatically refreshed every 10 minutes)

About weather observations | Map of Brisbane area stations | Latest observations for Brisbane area | Other Formats
Station Details ID: 040284 Name: BEERBURRUM FOREST STATION Lat: -26.96 Lon: 152.96 Height: 48.0 m
Data from the previous 72 hours. | See also: Recent months at Beerburrum
Date/Time
EST
Temp
°C
App
Temp
°C
Dew
Point
°C
Rel
Hum
%
Delta-T
°C
Wind Press
QNH
hPa
Press
MSL
hPa
Rain since
9am
mm
Dir  Spd
km/h
Gust
km/h
Spd
kts
Gust
kts
13/08:00pm 19.6 21.7 16.3 81 2.0 CALM 0 0 0 0 - - 0.6
13/07:30pm 20.0 22.0 16.0 78 2.4 CALM 0 6 0 3 - - 0.6
13/07:00pm 20.4 21.3 16.0 76 2.6 NNE 6 11 3 6 - - 0.6
13/06:30pm 20.5 20.8 15.9 75 2.8 NNE 9 15 5 8 - - 0.6
13/06:00pm 23.7 24.3 16.7 65 4.3 ENE 9 22 5 12 - - 0.6
13/05:30pm 25.6 26.3 18.0 63 4.8 NNE 11 22 6 12 - - 0.6
13/05:00pm 26.8 28.2 18.6 60 5.2 NNE 9 19 5 10 - - 0.4
13/04:30pm 26.2 26.5 17.0 57 5.7 NE 11 22 6 12 - - 0.4
13/04:00pm 27.4 28.0 18.7 59 5.6 NNE 13 22 7 12 - - 0.4
13/03:30pm 27.2 27.4 18.5 59 5.6 NE 15 28 8 15 - - 0.4
13/03:00pm 26.3 26.8 19.2 65 4.6 NNE 15 30 8 16 - - 0.4
13/02:30pm 26.5 28.8 21.3 73 3.5 NNE 11 20 6 11 - - 0.4
13/02:00pm 25.1 26.1 19.5 71 3.6 NNE 13 24 7 13 - - 0.0
13/01:30pm 27.6 27.9 18.0 55 6.1 ENE 13 24 7 13 - - 0.0
13/01:00pm 28.9 29.8 18.4 53 6.7 ENE 11 20 6 11 - - 0.0
13/12:30pm 29.0 29.9 19.3 55 6.3 NNE 13 28 7 15 - - 0.0
13/12:00pm 29.3 31.0 20.2 58 6.0 NNE 11 22 6 12 - - 0.0
13/11:30am 26.7 28.8 19.3 64 4.8 NE 7 15 4 8 - - 0.0
13/11:00am 26.9 28.6 19.3 63 4.9 ENE 9 24 5 13 - - 0.0
13/10:30am 28.0 29.9 19.8 61 5.4 E 9 19 5 10 - - 0.0
13/10:00am 28.6 30.2 19.2 56 6.1 NE 9 15 5 8 - - 0.0
13/09:30am 28.2 30.1 18.9 57 6.0 NE 7 11 4 6 - - 0.0
13/09:00am 28.2 29.4 18.3 55 6.3 NE 9 17 5 9 - - 0.2
13/08:30am 27.7 29.0 18.4 57 5.9 NNE 9 24 5 13 - - 0.2
13/08:00am 26.5 28.0 18.9 63 4.9 NNE 9 15 5 8 - - 0.2
13/07:30am 25.6 28.3 20.2 72 3.5 N 6 13 3 7 - - 0.2
13/07:00am 23.2 27.3 20.7 86 1.6 CALM 0 0 0 0 - - 0.2
13/06:30am 21.7 25.2 19.6 88 1.3 CALM 0 0 0 0 - - 0.2
13/06:00am 21.2 24.6 19.3 89 1.2 CALM 0 0 0 0 - - 0.2
13/05:30am 20.8 24.1 19.1 90 1.1 CALM 0 0 0 0 - - 0.2
13/05:00am 20.3 23.4 18.6 90 1.1 CALM 0 0 0 0 - - 0.2
13/04:30am 20.0 22.9 18.1 89 1.2 CALM 0 0 0 0 - - 0.2
13/04:00am 20.1 23.0 18.2 89 1.2 CALM 0 0 0 0 - - 0.2
13/03:30am 20.6 23.7 18.7 89 1.2 CALM 0 0 0 0 - - 0.2
13/03:00am 20.7 23.7 18.5 87 1.4 CALM 0 0 0 0 - - 0.2
13/02:30am 20.8 23.8 18.4 86 1.5 CALM 0 0 0 0 - - 0.2
13/02:00am 21.6 25.0 19.3 87 1.5 CALM 0 0 0 0 - - 0.2
13/01:30am 21.7 25.1 19.3 86 1.5 CALM 0 6 0 3 - - 0.2
13/01:00am 21.5 24.4 19.1 86 1.5 NNE 2 6 1 3 - - 0.2
13/12:30am 21.8 24.8 19.2 85 1.7 N 2 7 1 4 - - 0.2
13/12:00am 21.7 24.1 18.9 84 1.8 N 4 7 2 4 - - 0.2
 
Date/Time
EST
Temp
°C
App
Temp
°C
Dew
Point
°C
Rel
Hum
%
Delta-T
°C
Wind Press
QNH
hPa
Press
MSL
hPa
Rain since
9am
mm
Dir  Spd
km/h
Gust
km/h
Spd
kts
Gust
kts
12/11:30pm 22.2 25.5 19.0 82 2.0 CALM 0 0 0 0 - - 0.2
12/11:00pm 22.8 26.1 19.2 80 2.3 CALM 0 0 0 0 - - 0.2
12/10:30pm 23.3 25.8 19.0 77 2.7 N 4 7 2 4 - - 0.2
12/10:00pm 23.8 26.4 19.3 76 2.9 NE 4 7 2 4 - - 0.2
12/09:30pm 24.1 26.5 19.6 76 2.9 NNE 6 9 3 5 - - 0.2
12/09:00pm 24.2 26.4 19.5 75 3.0 E 7 13 4 7 - - 0.2
12/08:30pm 24.7 26.5 19.5 73 3.3 NNE 9 15 5 8 - - 0.2
12/08:00pm 24.8 26.6 19.6 73 3.4 N 9 17 5 9 - - 0.2
12/07:30pm 24.5 26.9 19.6 74 3.2 NNE 6 15 3 8 - - 0.2
12/07:00pm 24.8 25.7 19.2 71 3.6 NNE 13 32 7 17 - - 0.0
12/06:30pm 25.7 27.6 18.9 66 4.4 NNE 7 15 4 8 - - 0.0
12/06:00pm 26.0 27.1 18.9 65 4.5 NNE 11 20 6 11 - - 0.0
12/05:30pm 26.3 27.3 18.7 63 4.9 NNE 11 22 6 12 - - 0.0
12/05:00pm 26.6 27.9 18.5 61 5.2 NNE 9 17 5 9 - - 0.0
12/04:30pm 27.1 26.3 18.1 58 5.7 NNE 19 33 10 18 - - 0.0
12/04:00pm 28.8 29.7 18.3 53 6.7 ENE 11 20 6 11 - - 0.0
12/03:30pm 30.5 31.8 19.2 51 7.4 E 11 24 6 13 - - 0.0
12/03:00pm 30.9 32.2 19.3 50 7.6 NE 11 22 6 12 - - 0.0
12/02:30pm 30.3 31.1 19.0 50 7.3 NE 13 24 7 13 - - 0.0
12/02:00pm 30.9 32.3 19.6 51 7.4 ENE 11 19 6 10 - - 0.0
12/01:30pm 31.0 32.3 19.4 50 7.6 ENE 11 24 6 13 - - 0.0
12/01:00pm 31.0 31.3 18.0 45 8.4 E 13 19 7 10 - - 0.0
12/12:30pm 31.7 32.5 19.0 47 8.3 E 13 28 7 15 - - 0.0
12/12:00pm 32.8 35.1 20.7 49 8.1 E 9 17 5 9 - - 0.0
12/11:30am 31.6 32.2 18.6 46 8.4 ENE 13 22 7 12 - - 0.0
12/11:00am 31.9 32.1 15.8 38 10.0 E 9 15 5 8 - - 0.0
12/10:30am 31.2 32.2 16.8 42 9.1 N 7 20 4 11 - - 0.0
12/10:00am 30.6 31.3 17.0 44 8.6 N 9 17 5 9 - - 0.0
12/09:30am 29.6 30.4 17.4 47 7.7 WNW 9 17 5 9 - - 0.0
12/09:00am 29.3 31.1 18.4 51 7.0 ENE 6 11 3 6 - - 0.0
12/08:30am 27.4 28.3 17.6 55 6.2 E 9 15 5 8 - - 0.0
12/08:00am 26.3 27.5 17.4 58 5.6 NE 7 15 4 8 - - 0.0
12/07:30am 25.5 26.9 16.4 57 5.6 SSE 4 7 2 4 - - 0.0
12/07:00am 23.1 25.8 17.8 72 3.3 CALM 0 0 0 0 - - 0.0
12/06:30am 21.9 23.1 17.3 75 2.8 N 7 11 4 6 - - 0.0
12/06:00am 21.4 23.2 18.2 82 2.0 NNW 6 7 3 4 - - 0.0
12/05:30am 20.3 22.2 17.7 85 1.6 NW 4 7 2 4 - - 0.0
12/05:00am 20.1 22.5 16.9 82 1.9 CALM 0 0 0 0 - - 0.0
12/04:30am 20.6 23.0 17.0 80 2.2 CALM 0 0 0 0 - - 0.0
12/04:00am 21.0 22.1 17.0 78 2.4 S 7 13 4 7 - - 0.0
12/03:30am 21.5 22.8 17.1 76 2.7 NNW 6 9 3 5 - - 0.0
12/03:00am 21.1 23.5 17.1 78 2.4 CALM 0 6 0 3 - - 0.0
12/02:30am 20.9 22.0 17.1 79 2.3 NNW 7 9 4 5 - - 0.0
12/02:00am 21.1 21.9 17.3 79 2.3 NNW 9 17 5 9 - - 0.0
12/01:30am 21.1 22.5 17.3 79 2.3 NNW 6 9 3 5 - - 0.0
12/01:00am 20.9 21.7 17.3 80 2.2 WSW 9 20 5 11 - - 0.0
12/12:30am 20.7 22.4 16.3 76 2.7 ENE 2 9 1 5 - - 0.0
12/12:00am 21.1 22.4 16.1 73 3.0 S 4 9 2 5 - - 0.0
 
Date/Time
EST
Temp
°C
App
Temp
°C
Dew
Point
°C
Rel
Hum
%
Delta-T
°C
Wind Press
QNH
hPa
Press
MSL
hPa
Rain since
9am
mm
Dir  Spd
km/h
Gust
km/h
Spd
kts
Gust
kts
11/11:30pm 22.2 21.4 15.1 64 4.2 S 13 26 7 14 - - 0.0
11/11:00pm 25.1 28.0 20.6 76 2.9 SSW 6 11 3 6 - - 0.0
11/10:30pm 24.7 28.6 20.4 77 2.8 CALM 0 7 0 4 - - 0.0
11/10:00pm 24.6 28.1 20.3 77 2.8 W 2 7 1 4 - - 0.0
11/09:30pm 24.8 28.7 20.3 76 2.9 CALM 0 6 0 3 - - 0.0
11/09:00pm 25.0 27.2 20.3 75 3.1 NNE 9 17 5 9 - - 0.0
11/08:30pm 25.2 27.9 20.2 74 3.3 NNE 6 13 3 7 - - 0.0
11/08:00pm 25.2 27.7 20.2 74 3.3 NNE 7 17 4 9 - - 0.0
11/07:30pm 25.2 26.9 20.2 74 3.3 NNE 11 28 6 15 - - 0.0
11/07:00pm 25.4 27.0 20.0 72 3.5 N 11 20 6 11 - - 0.0
11/06:30pm 25.6 27.5 19.7 70 3.8 N 9 17 5 9 - - 0.0
11/06:00pm 25.9 27.7 19.5 68 4.1 NNE 9 19 5 10 - - 0.0
11/05:30pm 25.9 27.4 19.8 69 4.0 NNE 11 20 6 11 - - 0.0
11/05:00pm 26.1 27.9 19.5 67 4.3 NNE 9 15 5 8 - - 0.0
11/04:30pm 26.6 27.6 18.7 62 5.1 NNE 11 20 6 11 - - 0.0
11/04:00pm 27.7 28.2 17.5 53 6.4 NE 11 26 6 14 - - 0.0
11/03:30pm 29.4 29.7 16.9 47 7.9 NNE 11 20 6 11 - - 0.0
11/03:00pm 32.2 32.8 17.7 42 9.3 ENE 11 20 6 11 - - 0.0
11/02:30pm 32.9 33.2 17.1 39 10.1 E 11 22 6 12 - - 0.0
11/02:00pm 34.6 35.0 17.3 35 11.1 ENE 11 20 6 11 - - 0.0
11/01:30pm 34.3 34.4 17.5 36 10.8 ENE 13 24 7 13 - - 0.0
11/01:00pm 34.8 36.1 18.4 38 10.7 NE 9 19 5 10 - - 0.0
11/12:30pm 34.5 35.1 17.7 37 10.9 E 11 20 6 11 - - 0.0
11/12:00pm 34.5 35.5 17.7 37 10.9 NNE 9 19 5 10 - - 0.0
11/11:30am 33.6 34.6 17.7 38 10.3 NNE 9 20 5 11 - - 0.0
11/11:00am 32.7 32.6 16.1 37 10.4 N 11 20 6 11 - - 0.0
11/10:30am 32.0 32.8 16.3 39 9.9 N 7 17 4 9 - - 0.0
11/10:00am 31.0 31.7 17.0 43 8.9 NE 9 17 5 9 - - 0.0
11/09:30am 30.5 31.5 16.9 44 8.6 NNE 7 13 4 7 - - 0.0
11/09:00am 30.0 31.5 17.5 47 7.9 SSE 6 9 3 5 - - 0.0
11/08:30am 28.7 30.2 17.6 51 7.0 E 6 9 3 5 - - 0.0
11/08:00am 28.1 29.5 17.3 52 6.8 SSW 6 9 3 5 - - 0.0
11/07:30am 27.3 28.9 17.8 56 6.0 W 6 9 3 5 - - 0.0
11/07:00am 26.2 28.3 18.1 61 5.1 SSW 4 9 2 5 - - 0.0
11/06:30am 24.8 28.2 19.4 72 3.5 CALM 0 0 0 0 - - 0.0
11/06:00am 23.1 26.6 19.5 80 2.3 CALM 0 0 0 0 - - 0.0
11/05:30am 22.0 25.0 18.4 80 2.3 CALM 0 0 0 0 - - 0.0
11/05:00am 22.3 24.4 18.1 77 2.6 NE 4 7 2 4 - - 0.0
11/04:30am 23.4 24.9 18.1 72 3.3 N 7 13 4 7 - - 0.0
11/04:00am 23.6 25.1 18.9 75 3.0 N 9 22 5 12 - - 0.0
11/03:30am 22.7 24.8 18.9 79 2.4 N 6 13 3 7 - - 0.0
11/03:00am 22.4 24.3 19.0 81 2.2 N 7 11 4 6 - - 0.0
11/02:30am 22.4 24.4 19.2 82 2.0 N 7 15 4 8 - - 0.0
11/02:00am 22.5 24.7 19.1 81 2.2 NNE 6 9 3 5 - - 0.0
11/01:30am 22.8 23.9 19.6 82 2.1 N 13 19 7 10 - - 0.0
11/01:00am 22.2 24.4 19.2 83 1.9 N 6 9 3 5 - - 0.0
11/12:30am 22.3 25.1 18.9 81 2.2 N 2 7 1 4 - - 0.0
11/12:00am 22.7 25.8 18.7 78 2.5 CALM 0 0 0 0 - - 0.0
 
Date/Time
EST
Temp
°C
App
Temp
°C
Dew
Point
°C
Rel
Hum
%
Delta-T
°C
Wind Press
QNH
hPa
Press
MSL
hPa
Rain since
9am
mm
Dir  Spd
km/h
Gust
km/h
Spd
kts
Gust
kts
10/11:30pm 23.1 25.9 18.8 77 2.7 N 2 6 1 3 - - 0.0
10/11:00pm 23.6 25.7 19.3 77 2.7 N 7 15 4 8 - - 0.0
10/10:30pm 23.8 25.9 18.9 74 3.1 NE 6 13 3 7 - - 0.0
10/10:00pm 23.9 25.8 19.0 74 3.1 NNE 7 13 4 7 - - 0.0
10/09:30pm 24.2 25.6 19.5 75 3.0 N 11 19 6 10 - - 0.0
10/09:00pm 24.1 25.8 19.4 75 3.0 NNE 9 15 5 8 - - 0.0
10/08:30pm 24.4 26.2 19.5 74 3.2 NNE 9 17 5 9 - - 0.0

Latest Capital City Observations: Canberra | Sydney | Melbourne | Brisbane | Adelaide | Perth | Hobart | Darwin

Other formats

Comma delimited format used in spreadsheet applications
http://www.bom.gov.au/fwo/IDQ60901/IDQ60901.95566.axf

JavaScript Object Notation format (JSON) in row-major order
http://www.bom.gov.au/fwo/IDQ60901/IDQ60901.95566.json

Data quality

Most of these data are generated automatically and are frequently updated. Quality checks on data are not normally performed. It is possible for incorrect values to appear. Refer to information at About Latest Weather Observations and please check the disclaimer before using these data.